createdAt,value
2019-03-29T11:03:13.894Z,26.7500
2019-03-29T11:03:15.227Z,29.8500
2019-03-29T11:03:18.813Z,29.9000
2019-03-29T11:03:23.382Z,29.9000
2019-03-29T11:03:28.611Z,44.5000
2019-03-29T11:03:32.006Z,46.2500
2019-03-29T11:03:37.544Z,44.1000
2019-03-29T11:03:41.264Z,46.1000
2019-03-29T11:03:50.582Z,47.9000
2019-03-29T11:03:57.136Z,70.6000
2019-03-29T11:04:03.963Z,43.2000
2019-03-29T11:04:08.911Z,8.1500
2019-03-29T11:04:13.983Z,5.1000
2019-03-29T11:04:20.586Z,9.4000
2019-03-29T11:04:24.909Z,332.9500
2019-03-29T11:04:32.315Z,332.9000
2019-03-29T11:04:34.324Z,727.6500
2019-03-29T11:04:39.433Z,732.5500
2019-03-29T11:04:42.314Z,732.7500
2019-03-29T11:04:45.824Z,724.6500
2019-03-29T11:04:50.814Z,729.6000
2019-03-29T11:04:58.064Z,737.5000
2019-03-29T11:05:00.895Z,737.3500
2019-03-29T11:05:04.826Z,736.9000
2019-03-29T11:05:07.833Z,737.3000
2019-03-29T11:05:11.343Z,737.1000
2019-03-29T11:05:17.705Z,737.6500
2019-03-29T11:05:22.818Z,737.0000
2019-03-29T11:05:29.381Z,725.2500
2019-03-29T11:05:36.865Z,725.7000
2019-03-29T11:05:42.914Z,721.5000
2019-03-29T11:05:47.949Z,737.4000
2019-03-29T11:05:50.881Z,737.3500
2019-03-29T11:05:52.803Z,737.5500
2019-03-29T11:06:01.857Z,733.2000
2019-03-29T11:06:05.314Z,733.2500
2019-03-29T11:06:11.385Z,737.3000
2019-03-29T11:06:13.630Z,733.4500
2019-03-29T11:06:15.831Z,737.1000
2019-03-29T11:06:18.847Z,737.1500
2019-03-29T11:06:21.906Z,737.3500
2019-03-29T11:06:24.728Z,737.5500
2019-03-29T11:06:34.887Z,737.2000
2019-03-29T11:06:38.394Z,733.6000
2019-03-29T11:06:42.793Z,733.2000
2019-03-29T11:06:44.833Z,737.0500
2019-03-29T11:06:47.231Z,737.6000
2019-03-29T11:06:51.194Z,737.1500
2019-03-29T11:06:54.385Z,737.4000
2019-03-29T11:06:56.722Z,735.2500
2019-03-29T11:06:59.867Z,737.3000
2019-03-29T11:07:02.943Z,737.6000
2019-03-29T11:07:05.441Z,726.7500
2019-03-29T11:07:07.292Z,682.0500
2019-03-29T11:07:09.521Z,681.9000
2019-03-29T11:07:13.503Z,681.7500
2019-03-29T11:07:16.395Z,681.4500
2019-03-29T11:07:20.334Z,673.6500
2019-03-29T11:07:22.727Z,674.1000
2019-03-29T11:07:25.194Z,673.8500
2019-03-29T11:07:27.715Z,674.3000
2019-03-29T11:07:30.033Z,675.0500
2019-03-29T11:07:32.386Z,673.9000
2019-03-29T11:07:33.695Z,674.5500
2019-03-29T11:07:36.051Z,672.6000
2019-03-29T11:07:39.305Z,254.4000
2019-03-29T11:07:41.570Z,12.2000
2019-03-29T11:07:43.810Z,14.3500
2019-03-29T11:07:46.162Z,15.1000
2019-03-29T11:07:48.521Z,14.8000
2019-03-29T11:07:52.294Z,15.0000
2019-03-29T11:07:55.822Z,722.3500
2019-03-29T11:08:00.344Z,697.7500
2019-03-29T11:08:03.422Z,697.3500
2019-03-29T11:08:05.749Z,697.6500
2019-03-29T11:08:07.145Z,697.5500
2019-03-29T11:08:11.788Z,696.6500
2019-03-29T11:08:13.973Z,693.8000
2019-03-29T11:08:16.836Z,694.1000
2019-03-29T11:08:19.130Z,693.6000
2019-03-29T11:08:21.447Z,693.8000
2019-03-29T11:08:23.749Z,693.5500
2019-03-29T11:08:26.827Z,693.7500
2019-03-29T11:08:29.823Z,693.9000
2019-03-29T11:08:32.882Z,693.7500
2019-03-29T11:08:35.171Z,688.5500
2019-03-29T11:08:37.872Z,688.8000
2019-03-29T11:08:43.442Z,689.3500
2019-03-29T11:08:46.904Z,689.1500
2019-03-29T11:08:48.803Z,689.0500
2019-03-29T11:08:54.823Z,689.5500
2019-03-29T11:08:58.316Z,691.1000
2019-03-29T11:09:00.932Z,679.6000
2019-03-29T11:09:03.252Z,684.5000
2019-03-29T11:09:07.826Z,656.8500
2019-03-29T11:09:11.294Z,700.7000
2019-03-29T11:09:13.707Z,697.6500
2019-03-29T11:09:15.853Z,697.0000
2019-03-29T11:09:18.228Z,686.2000
2019-03-29T11:09:20.771Z,686.6000
2019-03-29T11:09:24.032Z,131.2500
2019-03-29T11:10:44.765Z,391.7000
2019-03-29T11:10:44.765Z,5.0000
2019-03-29T11:10:48.003Z,373.9000
2019-03-29T11:10:51.675Z,371.1000
2019-03-29T11:10:55.480Z,370.8000
2019-03-29T11:11:00.156Z,371.4000
2019-03-29T11:11:12.083Z,368.0500
2019-03-29T11:11:14.003Z,368.3500
2019-03-29T11:11:19.249Z,367.3500
2019-03-29T11:11:23.022Z,366.8500
2019-03-29T11:11:25.468Z,367.0000
2019-03-29T11:11:28.532Z,366.6500
2019-03-29T11:11:29.821Z,367.9000
2019-03-29T11:11:32.198Z,368.2500
2019-03-29T11:11:35.480Z,367.4000
2019-03-29T11:11:37.922Z,368.0000
2019-03-29T11:11:40.294Z,368.4000
2019-03-29T11:11:43.577Z,368.0500
2019-03-29T11:11:46.504Z,368.1000
2019-03-29T11:11:49.616Z,361.4000
2019-03-29T11:11:51.997Z,355.9500
2019-03-29T11:11:55.028Z,353.6500
2019-03-29T11:12:20.076Z,354.5500
2019-03-29T11:12:29.095Z,354.3000
2019-03-29T11:12:29.985Z,338.5000
2019-03-29T11:12:32.244Z,347.7500
2019-03-29T11:12:34.466Z,348.7000
2019-03-29T11:12:36.803Z,348.0500
2019-03-29T11:12:40.040Z,343.3000
2019-03-29T11:12:43.147Z,339.7500
2019-03-29T11:12:46.073Z,339.8000
2019-03-29T11:12:48.369Z,339.8500
2019-03-29T11:12:50.659Z,339.7000
2019-03-29T11:12:52.899Z,339.9500
2019-03-29T11:12:55.166Z,339.6500
2019-03-29T11:13:11.121Z,339.7500
2019-03-29T11:13:12.448Z,339.8000
2019-03-29T11:13:13.841Z,339.4500
2019-03-29T11:13:17.484Z,339.6000
2019-03-29T11:13:19.922Z,339.3000
2019-03-29T11:13:23.180Z,339.6000
2019-03-29T11:13:24.506Z,339.7000
2019-03-29T11:13:26.833Z,339.5500
2019-03-29T11:13:29.190Z,339.4500
2019-03-29T11:13:32.022Z,339.7000
2019-03-29T11:13:34.302Z,339.7000
2019-03-29T11:13:36.557Z,339.4000
2019-03-29T11:13:40.967Z,339.6000
2019-03-29T11:13:43.826Z,339.4500
2019-03-29T11:13:47.159Z,339.7000
2019-03-29T11:13:49.484Z,339.9000
2019-03-29T11:13:51.855Z,339.6000
2019-03-29T11:13:56.418Z,339.6500
2019-03-29T11:14:00.196Z,339.7500
2019-03-29T11:14:09.215Z,339.5000
2019-03-29T11:14:11.714Z,339.6500
2019-03-29T11:14:15.023Z,339.8000
2019-03-29T11:14:17.343Z,339.7500
2019-03-29T11:14:22.678Z,339.5000
2019-03-29T11:14:25.156Z,339.5000
2019-03-29T11:14:27.494Z,339.7500
2019-03-29T11:14:29.829Z,339.8000
2019-03-29T11:14:32.129Z,339.7000
2019-03-29T11:14:34.467Z,339.5000
2019-03-29T11:14:36.821Z,339.6500
2019-03-29T11:14:39.986Z,339.7500
2019-03-29T11:14:42.339Z,339.4500
2019-03-29T11:14:45.494Z,339.4000
2019-03-29T11:14:47.839Z,339.3000
2019-03-29T11:14:50.983Z,339.3000
2019-03-29T11:16:38.158Z,509.5000
2019-03-29T11:16:40.414Z,509.6500
2019-03-29T11:16:42.686Z,508.7500
2019-03-29T11:16:44.960Z,508.2000
2019-03-29T11:16:49.622Z,509.2000
2019-03-29T11:16:52.892Z,508.3000
2019-03-29T11:16:57.899Z,507.7500
2019-03-29T11:17:03.372Z,508.0000
2019-03-29T11:17:06.905Z,508.3500
2019-03-29T11:20:33.350Z,158.7000
2019-03-29T11:20:35.608Z,154.9500
2019-03-29T11:20:37.863Z,155.2500
2019-03-29T11:20:40.107Z,155.3500
2019-03-29T11:20:42.318Z,155.1000
2019-03-29T11:20:43.490Z,155.1500
2019-03-29T11:20:45.689Z,154.9000
2019-03-29T11:20:47.924Z,155.3000
2019-03-29T11:20:50.273Z,155.1000
2019-03-29T11:20:52.513Z,155.3500
2019-03-29T11:20:54.802Z,155.1000
2019-03-29T11:20:57.040Z,154.9500
2019-03-29T11:20:59.258Z,155.0000
2019-03-29T11:21:01.514Z,155.2000
2019-03-29T11:21:03.768Z,155.0000
2019-03-29T11:21:06.015Z,154.7500
2019-03-29T11:21:08.451Z,155.2000
2019-03-29T11:21:10.657Z,154.9500
2019-03-29T11:21:12.887Z,155.0000
2019-03-29T11:21:15.119Z,155.1000
2019-03-29T11:21:17.384Z,155.1000
2019-03-29T11:21:19.663Z,154.9000
2019-03-29T11:21:21.914Z,154.8500
2019-03-29T11:21:24.125Z,155.0000
2019-03-29T11:21:26.341Z,154.8500
2019-03-29T11:21:28.615Z,154.9000
2019-03-29T11:21:30.835Z,154.9000
2019-03-29T11:21:33.108Z,154.9000
2019-03-29T11:21:35.342Z,154.9500
2019-03-29T11:21:37.875Z,154.9500
2019-03-29T11:21:40.149Z,155.0000
2019-03-29T11:21:42.416Z,154.9500
2019-03-29T11:21:45.591Z,154.9500
2019-03-29T11:21:48.566Z,155.0000
2019-03-29T11:21:50.876Z,155.1500
2019-03-29T11:21:53.109Z,154.9500
2019-03-29T11:21:55.323Z,154.9500
2019-03-29T11:21:57.541Z,154.9000
2019-03-29T11:21:59.790Z,154.9500
2019-03-29T11:22:02.039Z,154.7500
2019-03-29T11:22:05.127Z,154.9000
2019-03-29T11:22:06.351Z,154.8000
2019-03-29T11:22:08.635Z,155.1000
2019-03-29T11:22:10.839Z,154.8000
2019-03-29T11:22:13.091Z,154.7500
2019-03-29T11:22:15.298Z,154.6000
2019-03-29T11:22:17.629Z,154.9000
2019-03-29T11:22:18.949Z,154.8500
2019-03-29T11:22:20.224Z,154.7500
2019-03-29T11:22:21.528Z,154.8000
2019-03-29T11:22:23.963Z,154.5500
2019-03-29T11:22:26.221Z,155.0000
2019-03-29T11:22:28.480Z,154.9000
2019-03-29T11:22:30.842Z,154.8000
2019-03-29T11:22:33.137Z,154.8500
2019-03-29T11:22:35.431Z,154.8500
2019-03-29T11:22:37.679Z,155.0500
2019-03-29T11:27:22.355Z,338.6500
2019-03-29T11:27:24.910Z,331.1000
2019-03-29T11:27:27.263Z,331.1500
2019-03-29T11:27:29.455Z,331.1500
2019-03-29T11:27:30.665Z,330.9000
2019-03-29T11:27:32.860Z,331.0500
2019-03-29T11:27:35.074Z,330.9500
2019-03-29T11:27:37.281Z,331.3500
2019-03-29T11:27:39.543Z,330.9000
2019-03-29T11:27:40.828Z,330.7500
2019-03-29T11:27:42.115Z,331.0000
2019-03-29T11:27:43.490Z,330.8500
2019-03-29T11:27:45.716Z,330.9000
2019-03-29T11:27:48.582Z,330.9500
2019-03-29T11:27:50.823Z,331.1000
2019-03-29T11:27:53.011Z,330.1000
2019-03-29T11:27:55.243Z,329.9000
2019-03-29T11:27:57.538Z,329.7500
2019-03-29T11:27:59.836Z,329.7500
2019-03-29T11:28:03.557Z,329.7000
2019-03-29T11:28:07.531Z,329.9000
2019-03-29T11:28:09.797Z,330.0000
2019-03-29T11:28:12.030Z,329.6000
2019-03-29T11:28:14.312Z,329.7500
2019-03-29T11:28:16.618Z,329.2500
2019-03-29T11:28:18.897Z,329.7500
2019-03-29T11:28:21.071Z,329.6000
2019-03-29T11:28:23.318Z,329.5500
2019-03-29T11:28:25.549Z,329.5500
2019-03-29T11:28:27.776Z,329.6500
2019-03-29T11:28:30.044Z,329.6000
2019-03-29T11:28:32.299Z,329.4000
2019-03-29T11:28:35.103Z,329.1000
2019-03-29T11:28:37.457Z,329.3500
2019-03-29T11:28:39.823Z,329.8000
2019-03-29T11:28:43.050Z,329.4000
2019-03-29T11:28:45.319Z,329.3500
2019-03-29T11:28:47.641Z,329.5000
2019-03-29T11:28:50.631Z,329.2000
2019-03-29T11:28:54.313Z,329.3000
2019-03-29T11:28:56.539Z,329.3000
2019-03-29T11:28:58.802Z,329.4000
2019-03-29T11:29:01.181Z,329.2000
2019-03-29T11:29:03.429Z,329.3500
2019-03-29T11:29:05.704Z,329.7000
2019-03-29T11:29:07.932Z,329.5000
2019-03-29T11:29:10.196Z,329.4000
2019-03-29T11:29:12.467Z,329.5000
2019-03-29T11:29:14.728Z,329.6000
2019-03-29T11:29:17.132Z,329.2000
2019-03-29T11:29:20.127Z,329.1500
2019-03-29T11:29:21.348Z,330.1000
2019-03-29T11:29:23.599Z,329.9500
2019-03-29T11:29:25.844Z,329.5500
2019-03-29T11:29:28.039Z,221.5500
2019-03-29T11:29:30.308Z,235.0000
2019-03-29T11:29:32.512Z,234.9000
2019-03-29T11:29:34.764Z,234.8500
2019-03-29T11:29:37.153Z,234.9000
2019-03-29T11:29:39.484Z,235.1000
2019-03-29T11:29:41.828Z,239.0500
2019-03-29T11:29:44.288Z,239.3000
2019-03-29T11:29:50.220Z,239.2000
2019-03-29T11:29:53.370Z,239.4000
2019-03-29T11:29:55.772Z,239.2500
2019-03-29T11:29:58.224Z,238.9500
2019-03-29T11:30:01.121Z,237.2500
2019-03-29T11:30:11.531Z,237.1000
2019-03-29T11:30:13.860Z,237.1000
2019-03-29T11:30:16.718Z,237.6000
2019-03-29T11:30:19.563Z,236.9000
2019-03-29T11:30:24.084Z,236.9000
2019-03-29T11:30:41.597Z,237.8000
2019-03-29T11:30:42.111Z,237.2000
2019-03-29T11:30:43.097Z,237.3500
2019-03-29T11:30:45.438Z,238.7000
2019-03-29T11:30:47.686Z,241.3000
2019-03-29T11:30:48.915Z,246.6500
2019-03-29T11:30:51.155Z,249.5000
2019-03-29T11:30:53.374Z,257.9000
2019-03-29T11:30:54.654Z,258.8500
2019-03-29T11:30:56.947Z,264.3000
2019-03-29T11:31:00.130Z,266.3500
2019-03-29T11:31:02.432Z,268.0000
2019-03-29T11:31:04.741Z,268.0500
2019-03-29T11:31:07.023Z,268.0500
2019-03-29T11:31:10.049Z,267.7500
2019-03-29T11:31:12.357Z,269.8000
2019-03-29T11:31:14.621Z,269.6000
2019-03-29T11:31:16.889Z,216.3000
2019-03-29T11:31:19.101Z,216.5000
2019-03-29T12:30:31.980Z,518.3500
2019-03-29T12:30:32.298Z,520.8000
2019-03-29T12:30:34.711Z,518.6500
2019-03-29T12:30:36.985Z,522.9000
2019-03-29T12:30:38.233Z,515.1500
2019-03-29T12:30:39.515Z,518.1000
2019-03-29T12:30:41.669Z,518.0000
2019-03-29T12:30:43.820Z,513.7500
2019-03-29T12:30:45.982Z,516.4000
2019-03-29T12:30:48.166Z,513.6000
2019-03-29T12:30:50.382Z,513.1500
2019-03-29T12:30:52.637Z,508.9000
2019-03-29T12:30:54.893Z,510.1000
2019-03-29T12:30:56.143Z,500.5500
2019-03-29T12:30:58.339Z,497.8500
2019-03-29T12:31:00.515Z,504.2500
2019-03-29T12:31:02.671Z,496.7000
2019-03-29T12:31:04.862Z,497.7500
2019-03-29T12:31:07.094Z,490.0500
2019-03-29T12:31:09.388Z,484.4000
2019-03-29T12:31:11.595Z,470.0500
2019-03-29T12:31:13.861Z,470.2500
2019-03-29T12:31:16.102Z,468.4000
2019-03-29T12:31:17.332Z,467.7500
2019-03-29T12:31:19.566Z,467.9000
2019-03-29T12:31:21.773Z,467.4500
2019-03-29T12:31:24.022Z,463.3500
2019-03-29T12:31:25.227Z,462.7500
2019-03-29T12:31:27.433Z,460.4000
2019-03-29T12:31:29.632Z,460.7500
2019-03-29T12:31:31.833Z,461.2500
2019-03-29T12:31:34.014Z,460.8500
2019-03-29T12:31:36.271Z,463.4000
2019-03-29T12:31:38.616Z,463.4500
2019-03-29T12:31:43.519Z,464.7500
2019-03-29T12:31:45.723Z,475.6500
2019-03-29T12:31:46.963Z,481.6500
2019-03-29T12:31:49.253Z,478.8000
2019-03-29T12:31:51.495Z,481.0500
2019-03-29T12:31:52.713Z,474.9000
2019-03-29T12:31:54.913Z,475.6500
2019-03-29T12:31:56.180Z,479.1500
2019-03-29T12:31:57.355Z,473.9500
2019-03-29T12:31:59.534Z,474.3000
2019-03-29T12:32:01.788Z,477.0000
2019-03-29T12:32:02.980Z,476.1000
2019-03-29T12:32:05.176Z,476.7500
2019-03-29T12:32:07.363Z,475.2500
2019-03-29T12:32:08.667Z,476.2000
2019-03-29T12:32:10.924Z,478.9000
2019-03-29T12:32:12.195Z,473.6500
2019-03-29T12:32:13.424Z,473.2000
2019-03-29T12:32:15.617Z,478.2500
2019-03-29T12:32:17.827Z,475.6500
2019-03-29T12:32:20.043Z,478.1000
2019-03-29T12:32:22.302Z,476.4500
2019-03-29T12:32:23.552Z,473.2500
2019-03-29T12:32:24.863Z,476.5000
2019-03-29T12:32:40.474Z,479.1000
2019-03-29T12:32:42.628Z,473.7000
2019-03-29T12:32:44.834Z,474.1000
2019-03-29T12:32:47.093Z,473.7000
2019-03-29T12:32:49.304Z,476.0000
2019-03-29T12:32:51.486Z,475.6500
2019-03-29T12:32:53.704Z,475.4500
2019-03-29T12:32:55.898Z,478.3500
2019-03-29T12:32:58.151Z,478.3500
2019-03-29T12:32:59.334Z,490.1000
2019-03-29T12:33:00.494Z,493.2500
2019-03-29T12:33:02.664Z,495.3000
2019-03-29T12:33:04.967Z,519.1000
2019-03-29T12:33:07.175Z,528.0000
2019-03-29T12:33:09.433Z,529.0500
2019-03-29T12:33:10.728Z,529.9000
2019-03-29T12:33:11.914Z,527.3000
2019-03-29T12:33:14.166Z,528.8000
2019-03-29T12:33:15.372Z,529.6000
2019-03-29T12:33:17.542Z,529.3500
2019-03-29T12:33:19.874Z,529.2500
2019-03-29T12:33:22.085Z,531.3500
2019-03-29T12:33:24.447Z,529.6500
2019-03-29T12:33:26.685Z,531.5500
2019-03-29T12:33:28.963Z,526.6500
2019-03-29T12:33:31.166Z,526.2500
2019-03-29T12:33:33.455Z,527.2000
2019-03-29T12:33:35.607Z,533.1000
2019-03-29T12:33:37.806Z,537.3000
2019-03-29T12:33:40.012Z,594.1000
2019-03-29T12:33:42.231Z,693.5000
2019-03-29T12:33:44.404Z,695.6000
2019-03-29T12:33:46.575Z,696.4000
2019-03-29T12:33:48.728Z,697.7000
2019-03-29T12:33:50.880Z,690.3500
2019-03-29T12:33:53.075Z,691.0500
2019-03-29T12:33:55.244Z,691.0000
2019-03-29T12:33:57.453Z,690.6500
2019-03-29T12:33:59.622Z,696.4000
2019-03-29T12:34:01.800Z,694.7000
2019-03-29T12:34:03.980Z,690.1500
2019-03-29T12:34:06.202Z,691.2000
2019-03-29T12:34:08.418Z,690.8000
2019-03-29T12:34:10.595Z,690.3500
2019-03-29T12:34:11.775Z,690.0000
2019-03-29T12:34:12.966Z,690.1500
2019-03-29T12:34:15.118Z,690.9000
2019-03-29T12:34:17.324Z,690.3500
2019-03-29T12:34:19.524Z,695.1500
2019-03-29T12:34:21.714Z,692.1500
2019-03-29T12:34:23.878Z,694.1500
2019-03-29T12:34:26.104Z,695.7500
2019-03-29T12:34:27.276Z,695.3500
2019-03-29T12:34:29.444Z,700.0000
2019-03-29T12:34:31.627Z,695.4000
2019-03-29T12:34:33.778Z,696.9500
2019-03-29T12:34:35.945Z,697.4500
2019-03-29T12:34:38.098Z,697.8000
2019-03-29T12:34:40.276Z,700.7500
2019-03-29T12:34:42.436Z,704.1000
2019-03-29T12:34:44.594Z,698.4500
2019-03-29T12:34:46.890Z,699.8000
2019-03-29T12:34:49.050Z,697.4500
2019-03-29T12:34:51.302Z,699.8000
2019-03-29T12:34:53.534Z,698.9500
2019-03-29T12:34:55.780Z,700.5000
2019-03-29T12:34:57.029Z,697.7000
2019-03-29T12:34:58.276Z,701.5500
2019-03-29T12:34:59.540Z,699.5000
2019-03-29T12:35:00.789Z,698.5500
2019-03-29T12:35:03.044Z,699.8000
2019-03-29T12:35:04.224Z,700.6500
2019-03-29T12:35:13.819Z,703.1500
2019-03-29T12:35:14.978Z,702.0500
2019-03-29T12:35:17.127Z,699.0500
2019-03-29T12:35:19.278Z,702.5000
2019-03-29T12:35:21.453Z,700.5500
2019-03-29T12:35:23.871Z,699.0000
2019-03-29T12:35:26.025Z,704.6000
2019-03-29T12:35:28.179Z,699.3500
2019-03-29T12:35:30.390Z,701.4000
2019-03-29T12:35:32.574Z,698.9000
2019-03-29T12:35:34.736Z,699.4000
2019-03-29T12:35:36.899Z,703.4000
2019-03-29T12:35:39.102Z,703.9500
2019-03-29T12:35:41.298Z,703.1500
2019-03-29T12:35:43.494Z,704.9500
2019-03-29T12:35:45.654Z,705.4500
2019-03-29T12:35:47.824Z,700.8500
2019-03-29T12:35:50.024Z,699.6000
2019-03-29T12:35:52.227Z,699.3500
2019-03-29T12:35:54.486Z,699.0500
2019-03-29T12:35:56.665Z,700.2500
2019-03-29T12:35:58.854Z,700.0500
2019-03-29T12:36:01.067Z,705.6000
2019-03-29T12:36:03.284Z,701.9000
2019-03-29T12:36:05.515Z,706.9500
2019-03-29T12:36:07.708Z,698.8000
2019-03-29T12:36:10.499Z,699.9000
2019-03-29T12:36:13.056Z,706.2000
2019-03-29T12:36:16.028Z,708.3500
2019-03-29T12:36:18.234Z,700.4000
2019-03-29T12:36:20.820Z,700.5000
2019-03-29T12:36:22.115Z,707.7000
2019-03-29T12:36:23.394Z,700.2500
2019-03-29T12:36:24.675Z,706.3500
2019-03-29T12:36:26.892Z,701.3500
2019-03-29T12:36:29.074Z,703.0000
2019-03-29T12:36:31.322Z,704.1000
2019-03-29T12:36:33.599Z,701.0000
2019-03-29T12:36:35.853Z,700.6000
2019-03-29T12:36:38.102Z,704.4000
2019-03-29T12:36:40.264Z,708.2500
2019-03-29T12:36:42.512Z,701.3000
2019-03-29T12:36:46.045Z,701.3000
2019-03-29T12:36:47.505Z,701.6500
2019-03-29T12:36:49.700Z,700.8000
2019-03-29T12:36:51.954Z,704.0500
2019-03-29T12:36:53.126Z,718.5500
2019-03-29T12:36:55.285Z,724.5500
2019-03-29T12:36:57.494Z,761.9000
2019-03-29T12:37:00.546Z,767.3500
2019-03-29T12:37:01.754Z,727.9000
2019-03-29T12:37:03.929Z,732.8000
2019-03-29T12:37:05.087Z,6.2500
2019-03-29T12:37:07.247Z,22.4500
2019-03-29T12:37:09.423Z,27.7500
2019-03-29T12:37:11.593Z,27.8000
2019-03-29T12:37:13.760Z,27.9000
2019-03-29T12:37:15.985Z,27.9500
2019-03-29T12:37:18.150Z,28.3000
2019-03-29T12:37:20.408Z,27.8500
2019-03-29T12:37:22.604Z,28.2500
2019-03-29T12:37:24.794Z,28.8000
2019-03-29T12:37:26.965Z,29.7500
2019-03-29T12:37:29.154Z,30.0500
2019-03-29T12:37:31.371Z,29.9000
2019-03-29T12:37:33.568Z,30.1500
2019-03-29T12:37:35.813Z,30.3500
2019-03-29T12:37:37.012Z,29.9500
2019-03-29T12:37:39.168Z,29.7500
2019-03-29T12:37:41.365Z,28.4000
2019-03-29T12:37:43.569Z,28.0500
2019-03-29T12:37:45.764Z,29.3500
2019-03-29T12:37:47.993Z,30.1500
2019-03-29T12:37:50.213Z,78.5500
2019-03-29T12:37:52.629Z,132.3000
2019-03-29T12:37:54.818Z,132.5500
2019-03-29T12:37:57.024Z,132.3000
2019-03-29T12:37:59.244Z,133.9000
2019-03-29T12:38:01.537Z,137.7000
2019-03-29T12:38:03.771Z,137.7500
2019-03-29T12:38:05.988Z,138.0500
2019-03-29T12:38:08.209Z,138.8000
2019-03-29T12:38:10.473Z,138.3000
2019-03-29T12:38:12.737Z,137.6500
2019-03-29T12:38:14.974Z,139.0500
2019-03-29T12:38:17.180Z,138.5000
2019-03-29T12:38:19.357Z,138.1500
2019-03-29T12:38:21.576Z,138.4000
2019-03-29T12:38:24.500Z,138.0500
2019-03-29T12:38:26.664Z,139.5500
2019-03-29T12:38:28.829Z,137.7000
2019-03-29T12:38:31.004Z,138.1500
2019-03-29T12:38:33.182Z,137.7500
2019-03-29T12:38:35.343Z,136.4000
2019-03-29T12:38:37.562Z,137.3000
2019-03-29T12:38:39.834Z,137.2000
2019-03-29T12:38:42.011Z,137.4500
2019-03-29T12:38:44.166Z,137.5000
2019-03-29T12:38:46.402Z,137.5500
2019-03-29T12:38:48.558Z,136.9500
2019-03-29T12:38:50.775Z,135.4000
2019-03-29T12:38:53.012Z,133.8000
2019-03-29T12:38:55.166Z,133.5500
2019-03-29T12:38:57.330Z,134.3000
2019-03-29T12:38:59.515Z,131.2000
2019-03-29T12:39:01.683Z,129.3000
2019-03-29T12:39:03.854Z,128.3500
2019-03-29T12:39:06.025Z,128.8000
2019-03-29T12:39:08.206Z,129.1000
2019-03-29T12:39:10.737Z,129.5000
2019-03-29T12:39:12.945Z,136.8500
2019-03-29T12:39:15.145Z,155.3500
2019-03-29T12:39:17.329Z,154.5000
2019-03-29T12:39:18.495Z,155.2000
2019-03-29T12:39:20.664Z,154.7000
2019-03-29T12:39:22.819Z,153.7500
2019-03-29T12:39:24.970Z,155.4500
2019-03-29T12:39:27.144Z,154.9000
2019-03-29T12:39:29.296Z,153.4000
2019-03-29T12:39:31.474Z,138.7000
2019-03-29T12:39:33.742Z,140.6000
2019-03-29T12:39:35.964Z,170.0500
2019-03-29T12:39:38.179Z,170.5000
2019-03-29T12:39:40.398Z,171.2000
2019-03-29T12:39:42.584Z,168.9500
2019-03-29T12:39:44.815Z,148.2500
2019-03-29T12:39:47.055Z,156.7000
2019-03-29T12:39:49.418Z,161.1500
2019-03-29T12:39:51.701Z,161.1500
2019-03-29T12:39:52.869Z,162.0500
2019-03-29T12:39:55.029Z,161.3500
2019-03-29T12:39:57.189Z,161.9000
2019-03-29T12:39:59.348Z,161.2000
2019-03-29T12:40:01.529Z,161.4500
2019-03-29T12:40:03.710Z,160.7500
2019-03-29T12:40:05.898Z,161.8500
2019-03-29T12:40:08.068Z,162.2000
2019-03-29T12:40:10.230Z,162.4500
2019-03-29T12:40:12.398Z,162.8500
2019-03-29T12:40:14.634Z,162.3500
2019-03-29T12:40:16.801Z,163.3500
2019-03-29T12:40:18.969Z,163.5000
2019-03-29T12:40:21.138Z,162.6500
2019-03-29T12:40:23.308Z,161.7000
2019-03-29T12:40:25.476Z,161.4500
2019-03-29T12:40:27.656Z,162.1500
2019-03-29T12:40:29.808Z,161.6000
2019-03-29T12:40:31.978Z,161.7500
2019-03-29T12:40:34.138Z,162.9500
2019-03-29T12:40:36.355Z,162.5000
2019-03-29T12:40:38.518Z,162.1000
2019-03-29T12:40:40.678Z,162.6500
2019-03-29T12:40:45.186Z,161.6000
2019-03-29T12:40:47.578Z,162.3000
2019-03-29T12:40:49.748Z,161.9000
2019-03-29T12:40:51.905Z,162.8000
2019-03-29T12:40:54.070Z,161.7000
2019-03-29T12:40:56.230Z,162.7000
2019-03-29T12:40:58.924Z,163.1500
2019-03-29T12:41:01.114Z,162.8000
2019-03-29T12:41:03.299Z,163.4000
2019-03-29T12:41:05.476Z,163.0500
2019-03-29T12:41:07.648Z,163.7500
2019-03-29T12:41:09.808Z,163.5500
2019-03-29T12:41:11.984Z,166.0500
2019-03-29T12:41:14.250Z,165.2500
2019-03-29T12:41:15.532Z,163.7000
2019-03-29T12:41:16.906Z,165.8000
2019-03-29T12:41:18.154Z,163.9500
2019-03-29T12:41:19.402Z,165.0000
2019-03-29T12:41:20.653Z,165.0000
2019-03-29T12:41:22.989Z,163.9000
2019-03-29T12:41:25.184Z,163.5000
2019-03-29T12:41:27.575Z,163.6500
2019-03-29T12:41:29.740Z,175.5000
2019-03-29T12:41:31.895Z,180.4000
2019-03-29T12:41:34.090Z,182.3500
2019-03-29T12:41:36.273Z,185.9000
2019-03-29T12:41:38.449Z,187.6000
2019-03-29T12:41:40.610Z,259.6500
2019-03-29T12:41:42.821Z,260.1000
2019-03-29T12:41:45.005Z,259.3500
2019-03-29T12:41:47.158Z,259.8000
2019-03-29T12:41:49.386Z,262.1500
2019-03-29T12:41:51.565Z,260.5000
2019-03-29T12:41:53.756Z,263.7500
2019-03-29T12:41:54.944Z,262.9000
2019-03-29T12:41:57.114Z,262.3000
2019-03-29T12:41:59.277Z,262.1500
2019-03-29T12:42:01.445Z,262.1000
2019-03-29T12:42:03.609Z,262.0500
2019-03-29T12:42:05.784Z,262.0500
2019-03-29T12:42:08.192Z,265.2500
2019-03-29T12:42:10.967Z,262.2000
2019-03-29T12:42:13.150Z,263.6000
2019-03-29T12:42:15.319Z,263.6500
2019-03-29T12:42:17.498Z,264.5000
2019-03-29T12:42:19.648Z,265.2000
2019-03-29T12:42:21.811Z,288.5000
2019-03-29T12:42:23.995Z,288.5000
2019-03-29T12:42:26.262Z,289.7000
2019-03-29T12:42:28.494Z,273.4500
2019-03-29T12:42:30.658Z,272.7000
2019-03-29T12:42:32.831Z,273.8500
2019-03-29T12:42:34.996Z,269.4500
2019-03-29T12:42:37.154Z,262.6500
2019-03-29T12:42:39.322Z,258.6500
2019-03-29T12:42:41.504Z,259.0000
2019-03-29T12:42:43.732Z,260.2000
2019-03-29T12:42:44.942Z,306.6500
2019-03-29T12:42:47.114Z,332.1500
2019-03-29T12:42:49.274Z,322.9500
2019-03-29T12:42:51.458Z,324.2000
2019-03-29T12:42:53.609Z,323.0500
2019-03-29T12:42:55.811Z,322.1500
2019-03-29T12:42:58.076Z,321.9000
2019-03-29T12:43:00.238Z,321.9000
2019-03-29T12:43:02.409Z,322.7000
2019-03-29T12:43:04.588Z,325.5500
2019-03-29T12:43:06.760Z,330.6500
2019-03-29T12:43:12.262Z,341.8000
2019-03-29T12:43:14.846Z,342.6500
2019-03-29T12:43:17.046Z,346.3000
2019-03-29T12:43:19.281Z,343.5000
2019-03-29T12:43:21.446Z,343.6000
2019-03-29T12:43:23.634Z,343.1000
2019-03-29T12:43:24.836Z,342.8000
2019-03-29T12:43:27.073Z,342.1500
2019-03-29T12:43:29.265Z,342.3500
2019-03-29T12:43:31.424Z,344.7000
2019-03-29T12:43:33.588Z,345.9000
2019-03-29T12:43:36.663Z,341.9500
2019-03-29T12:43:54.946Z,336.2500
2019-03-29T12:43:55.350Z,334.3500
2019-03-29T12:43:55.734Z,333.0500
2019-03-29T12:43:58.431Z,332.5000
2019-03-29T12:44:00.732Z,329.5500
2019-03-29T12:44:03.005Z,332.5000
2019-03-29T12:44:05.260Z,316.2500
2019-03-29T12:44:07.514Z,109.9500
2019-03-29T12:44:08.757Z,191.6000
2019-03-29T12:44:10.944Z,268.5500
2019-03-29T12:44:12.159Z,225.4500
2019-03-29T12:44:14.329Z,219.7000
2019-03-29T12:44:16.512Z,231.2500
2019-03-29T12:44:18.680Z,224.4500
2019-03-29T12:44:20.853Z,248.5000
2019-03-29T12:44:23.014Z,173.6000